Time;durP1;ratioP1;P1;durP2;ratioP2;P2;SDS_P1;SDS_P2;PMS_P1;PMS_P2;Temp;Humidity;BMP_temperature;BMP_pressure;BME280_temperature;BME280_humidity;BME280_pressure;Samples;Min_cycle;Max_cycle;Signal;HPM_P1;HPM_P2
2022/02/22 00:05:27;;;;;;;0.20;0.10;;;10.70;99.90;;;;;;25307484;23;20199;-62
2022/02/22 00:15:32;;;;;;;0.20;0.10;;;10.50;99.90;;;;;;25333548;23;20165;-63
2022/02/22 00:25:36;;;;;;;0.20;0.00;;;10.50;99.90;;;;;;25332451;23;20204;-64
2022/02/22 00:35:42;;;;;;;0.20;0.10;;;10.60;99.90;;;;;;25331718;23;20204;-64
2022/02/22 00:45:46;;;;;;;1.03;0.87;;;10.30;99.90;;;;;;25306858;23;20172;-77
2022/02/22 00:55:51;;;;;;;0.30;0.23;;;10.00;99.90;;;;;;25331874;23;20168;-77
2022/02/22 01:05:55;;;;;;;0.20;0.10;;;10.10;99.90;;;;;;25331435;23;20184;-78
2022/02/22 01:16:00;;;;;;;0.20;0.10;;;10.00;99.90;;;;;;25330442;23;20175;-74
2022/02/22 01:26:04;;;;;;;0.20;0.07;;;10.00;99.90;;;;;;25329500;23;20180;-65
2022/02/22 01:36:09;;;;;;;0.20;0.00;;;10.00;99.90;;;;;;25303473;23;20200;-65
2022/02/22 01:46:14;;;;;;;0.20;0.10;;;9.80;99.90;;;;;;25329522;23;20184;-65
2022/02/22 01:56:19;;;;;;;0.20;0.00;;;9.90;99.90;;;;;;25329410;23;20172;-65
2022/02/22 02:06:23;;;;;;;0.20;0.10;;;10.20;99.90;;;;;;25303001;23;20199;-65
2022/02/22 02:16:28;;;;;;;0.20;0.10;;;10.20;99.90;;;;;;25328099;23;20165;-65
2022/02/22 02:26:33;;;;;;;0.20;0.00;;;10.30;99.90;;;;;;25327443;23;20192;-65
2022/02/22 02:36:38;;;;;;;0.60;0.60;;;10.10;99.90;;;;;;25302310;23;20219;-69
2022/02/22 02:46:44;;;;;;;0.20;0.10;;;10.20;99.90;;;;;;25302475;23;20188;-67
2022/02/22 02:56:48;;;;;;;0.20;0.10;;;11.40;99.90;;;;;;25327148;23;20163;-63
2022/02/22 03:06:53;;;;;;;0.20;0.00;;;11.70;99.90;;;;;;25327003;23;20195;-64
2022/02/22 03:16:57;;;;;;;0.20;0.10;;;11.70;99.90;;;;;;25328502;23;20156;-80
2022/02/22 03:27:02;;;;;;;0.20;0.10;;;11.50;99.90;;;;;;25333125;23;20199;-80
2022/02/22 03:37:06;;;;;;;0.20;0.10;;;11.30;99.90;;;;;;25306352;23;20211;-64
2022/02/22 03:47:11;;;;;;;0.50;0.50;;;11.20;99.90;;;;;;25334042;23;20188;-64
2022/02/22 03:57:16;;;;;;;0.20;0.10;;;10.80;99.90;;;;;;25334144;23;20168;-68
2022/02/22 04:07:21;;;;;;;0.20;0.10;;;10.80;99.90;;;;;;25333886;23;20197;-69
2022/02/22 04:17:25;;;;;;;0.20;0.10;;;10.70;99.90;;;;;;25333249;23;20167;-68
2022/02/22 04:27:30;;;;;;;0.20;0.10;;;10.40;99.90;;;;;;25307911;23;20192;-68
2022/02/22 04:37:34;;;;;;;0.20;0.10;;;9.80;99.90;;;;;;25331605;23;20211;-68
2022/02/22 04:47:40;;;;;;;0.20;0.10;;;9.70;99.90;;;;;;25305493;23;20192;-68
2022/02/22 04:57:44;;;;;;;0.20;0.10;;;9.50;99.90;;;;;;25305930;23;20179;-68
2022/02/22 05:07:49;;;;;;;0.20;0.10;;;9.30;99.90;;;;;;25330629;23;20195;-67
2022/02/22 05:17:53;;;;;;;0.20;0.10;;;9.10;99.90;;;;;;25330787;23;20175;-66
2022/02/22 05:27:58;;;;;;;0.20;0.00;;;8.50;99.90;;;;;;25329995;23;20194;-68
2022/02/22 05:38:02;;;;;;;0.20;0.10;;;8.70;99.90;;;;;;25328187;23;20196;-68
2022/02/22 05:48:10;;;;;;;0.20;0.10;;;8.50;99.90;;;;;;25327704;23;20192;-68
2022/02/22 05:58:14;;;;;;;0.20;0.10;;;8.80;99.90;;;;;;25327217;23;20153;-69
2022/02/22 06:08:20;;;;;;;0.20;0.10;;;8.90;99.90;;;;;;25325731;23;20262;-67
2022/02/22 06:18:23;;;;;;;0.20;0.10;;;8.50;99.90;;;;;;25322965;23;20164;-69
2022/02/22 06:28:29;;;;;;;0.20;0.10;;;8.30;99.90;;;;;;25323911;23;20270;-69
2022/02/22 06:38:33;;;;;;;0.20;0.10;;;8.40;99.90;;;;;;25322209;23;20211;-68
2022/02/22 06:48:40;;;;;;;0.20;0.10;;;8.70;99.90;;;;;;25322435;23;20265;-69
2022/02/22 06:58:45;;;;;;;0.20;0.10;;;8.70;99.90;;;;;;25321128;23;20168;-68
2022/02/22 07:08:49;;;;;;;0.20;0.10;;;8.70;99.90;;;;;;25289742;23;20202;-68
2022/02/22 07:18:54;;;;;;;0.20;0.10;;;9.00;99.90;;;;;;25302061;23;20168;-63
2022/02/22 07:28:58;;;;;;;0.20;0.10;;;9.20;99.90;;;;;;25330146;23;20192;-64
2022/02/22 07:39:05;;;;;;;0.20;0.10;;;9.40;99.90;;;;;;25328366;23;20192;-65
2022/02/22 07:49:10;;;;;;;0.20;0.10;;;9.80;99.90;;;;;;25327376;23;20181;-63
2022/02/22 07:59:15;;;;;;;0.20;0.10;;;9.90;99.90;;;;;;25316797;23;20168;-64
2022/02/22 08:09:19;;;;;;;0.20;0.10;;;10.40;99.90;;;;;;25318334;23;20203;-65
2022/02/22 08:19:27;;;;;;;0.20;0.10;;;10.80;99.90;;;;;;25318281;23;20164;-65
2022/02/22 08:29:32;;;;;;;0.20;0.10;;;11.00;99.90;;;;;;25325948;23;20258;-79
2022/02/22 08:39:37;;;;;;;0.20;0.00;;;11.40;99.90;;;;;;25191938;23;20201;-80
2022/02/22 08:49:42;;;;;;;0.20;0.10;;;11.60;99.90;;;;;;25206401;23;20248;-66
2022/02/22 08:59:47;;;;;;;0.20;0.10;;;11.60;99.90;;;;;;25206479;23;20168;-67
2022/02/22 09:09:51;;;;;;;0.20;0.10;;;11.80;99.90;;;;;;25205859;23;20184;-66
2022/02/22 09:19:57;;;;;;;0.20;0.10;;;12.20;99.90;;;;;;25206479;23;20209;-68
2022/02/22 09:30:02;;;;;;;0.20;0.10;;;12.40;99.90;;;;;;25181008;23;20213;-66
2022/02/22 09:40:09;;;;;;;0.20;0.10;;;12.90;99.90;;;;;;25318408;23;20196;-67
2022/02/22 09:50:14;;;;;;;0.20;0.10;;;13.40;99.90;;;;;;25285888;23;20188;-67
2022/02/22 10:00:21;;;;;;;0.20;0.10;;;13.80;99.90;;;;;;25306263;23;20183;-66
2022/02/22 10:10:36;;;;;;;0.20;0.00;;;14.40;99.90;;;;;;25300675;23;20306;-65
2022/02/22 10:20:43;;;;;;;0.20;0.10;;;14.30;99.90;;;;;;25306207;23;20156;-66
2022/02/22 10:30:50;;;;;;;0.20;0.10;;;14.70;99.90;;;;;;25281257;23;20455;-65
2022/02/22 10:41:02;;;;;;;0.20;0.10;;;15.00;99.90;;;;;;25304564;23;20172;-66
2022/02/22 10:51:10;;;;;;;0.20;0.10;;;15.20;99.90;;;;;;25305571;23;20191;-66
2022/02/22 11:01:23;;;;;;;0.20;0.03;;;15.70;99.90;;;;;;25281394;23;20191;-67
2022/02/22 11:11:36;;;;;;;0.20;0.10;;;15.80;99.90;;;;;;25281036;23;20211;-69
2022/02/22 11:21:42;;;;;;;0.20;0.10;;;16.10;99.90;;;;;;25307600;23;20296;-65
2022/02/22 11:31:58;;;;;;;0.20;0.10;;;16.20;99.90;;;;;;25277316;23;20230;-66
2022/02/22 11:42:05;;;;;;;0.20;0.10;;;17.30;99.90;;;;;;25305909;23;20176;-67
2022/02/22 11:52:11;;;;;;;0.20;0.10;;;17.50;99.90;;;;;;25305694;23;20208;-65
2022/02/22 12:02:30;;;;;;;0.20;0.10;;;17.50;99.90;;;;;;25313546;23;20168;-68
2022/02/22 12:12:34;;;;;;;0.30;0.30;;;17.80;99.90;;;;;;25312440;23;20207;-66
2022/02/22 12:22:40;;;;;;;0.20;0.00;;;18.60;99.90;;;;;;25311958;23;20377;-67
2022/02/22 15:37:40;;;;;;;0.20;0.10;;;21.10;99.90;;;;;;25426086;23;20236;-67
2022/02/22 15:47:44;;;;;;;0.20;0.00;;;20.40;99.90;;;;;;25434234;23;20183;-66
2022/02/22 15:57:49;;;;;;;0.20;0.00;;;19.50;99.90;;;;;;25432795;23;20186;-66
2022/02/22 16:07:54;;;;;;;0.20;0.10;;;18.40;99.90;;;;;;25430992;23;20183;-66
2022/02/22 16:17:59;;;;;;;0.20;0.00;;;18.90;99.90;;;;;;25430926;23;20163;-65
2022/02/22 16:28:03;;;;;;;0.20;0.10;;;18.30;99.90;;;;;;25430523;23;20203;-64
2022/02/22 16:38:27;;;;;;;0.20;0.10;;;17.70;99.90;;;;;;25430849;23;20195;-65
2022/02/22 16:48:31;;;;;;;0.20;0.00;;;16.20;99.90;;;;;;25411799;23;20206;-81
2022/02/22 16:58:36;;;;;;;0.20;0.00;;;15.80;99.90;;;;;;25435921;23;20174;-83
2022/02/22 17:08:40;;;;;;;0.20;0.10;;;14.90;99.90;;;;;;25410583;23;20191;-79
2022/02/22 17:18:49;;;;;;;0.20;0.00;;;14.30;99.90;;;;;;25410630;23;20243;-82
2022/02/22 17:28:53;;;;;;;0.20;0.10;;;14.20;99.90;;;;;;25410474;23;20184;-80
2022/02/22 17:38:58;;;;;;;0.20;0.00;;;13.90;99.90;;;;;;25441677;23;20210;-75
2022/02/22 17:49:04;;;;;;;0.20;0.10;;;13.60;99.90;;;;;;25440245;23;20171;-79
2022/02/22 17:59:09;;;;;;;0.20;0.00;;;13.60;99.90;;;;;;25413136;23;20159;-63
2022/02/22 18:09:13;;;;;;;0.20;0.10;;;13.60;99.90;;;;;;25436642;23;20187;-64
2022/02/22 18:19:18;;;;;;;0.20;0.10;;;13.30;99.90;;;;;;25436682;23;20171;-64
2022/02/22 18:29:22;;;;;;;0.20;0.03;;;12.80;99.90;;;;;;25431794;23;20187;-63
2022/02/22 18:39:27;;;;;;;0.20;0.10;;;12.40;99.90;;;;;;25412329;23;20207;-79
2022/02/22 18:49:31;;;;;;;3.80;1.80;;;12.10;99.90;;;;;;25441735;23;20198;-87
2022/02/22 18:59:36;;;;;;;0.20;0.10;;;11.80;99.90;;;;;;25443588;23;20163;-80
2022/02/22 19:09:40;;;;;;;0.20;0.10;;;11.70;99.90;;;;;;25438019;23;20191;-76
2022/02/22 19:19:45;;;;;;;0.20;0.10;;;11.60;99.90;;;;;;25413596;23;20172;-79
2022/02/22 19:29:49;;;;;;;0.20;0.10;;;11.20;99.90;;;;;;25440163;23;20199;-80
2022/02/22 19:39:54;;;;;;;0.20;0.10;;;11.30;99.90;;;;;;25437961;23;20203;-87
2022/02/22 19:49:58;;;;;;;0.20;0.10;;;11.30;99.90;;;;;;25442743;23;20190;-84
2022/02/22 20:00:04;;;;;;;0.20;0.10;;;11.10;99.90;;;;;;25419268;23;20172;-84
2022/02/22 20:10:11;;;;;;;0.20;0.10;;;10.80;99.90;;;;;;25441231;23;20183;-82
2022/02/22 20:20:17;;;;;;;0.20;0.10;;;10.50;99.90;;;;;;25446981;23;20175;-80
2022/02/22 20:30:21;;;;;;;0.20;0.20;;;10.60;99.90;;;;;;25449780;23;20210;-82
2022/02/22 20:40:27;;;;;;;0.20;0.10;;;10.70;99.90;;;;;;25451723;23;20203;-84
2022/02/22 20:50:31;;;;;;;0.20;0.10;;;10.50;99.90;;;;;;25450775;23;20183;-83
2022/02/22 21:00:37;;;;;;;0.20;0.07;;;10.20;99.90;;;;;;25448525;23;20166;-81
2022/02/22 21:10:44;;;;;;;0.20;0.10;;;10.50;99.90;;;;;;25448549;23;20168;-81
2022/02/22 21:20:49;;;;;;;0.20;0.10;;;10.20;99.90;;;;;;25447124;23;20179;-63
2022/02/22 21:30:53;;;;;;;0.20;0.00;;;10.10;99.90;;;;;;25446488;23;20214;-64
2022/02/22 21:41:00;;;;;;;0.20;0.10;;;9.50;99.90;;;;;;25445493;23;20202;-64
2022/02/22 21:51:05;;;;;;;0.20;0.10;;;9.70;99.90;;;;;;25446072;23;20247;-64
2022/02/22 22:01:10;;;;;;;0.20;0.10;;;9.70;99.90;;;;;;25443786;23;20198;-68
2022/02/22 22:11:15;;;;;;;0.20;0.00;;;9.40;99.90;;;;;;25445072;23;20199;-67
2022/02/22 22:21:20;;;;;;;0.20;0.10;;;9.90;99.90;;;;;;25445735;23;20167;-66
2022/02/22 22:31:26;;;;;;;0.20;0.10;;;9.00;99.90;;;;;;25447772;23;20210;-67
2022/02/22 22:41:31;;;;;;;0.20;0.00;;;9.00;99.90;;;;;;25423266;23;20199;-67
2022/02/22 22:51:35;;;;;;;0.20;0.10;;;8.90;99.90;;;;;;25448846;23;20195;-79
2022/02/22 23:01:40;;;;;;;0.20;0.10;;;8.80;99.90;;;;;;25448405;23;20168;-80
2022/02/22 23:22:07;;;;;;;0.20;0.10;;;8.90;99.90;;;;;;25448354;23;20167;-75
2022/02/22 23:32:11;;;;;;;0.20;0.10;;;9.00;99.90;;;;;;25447800;23;20632;-76
2022/02/22 23:42:16;;;;;;;0.20;0.03;;;9.00;99.90;;;;;;25423236;23;20175;-77
2022/02/22 23:52:20;;;;;;;0.20;0.10;;;9.10;99.90;;;;;;25451911;23;20187;-81
